sensor_id;sensor_type;location;lat;lon;timestamp;pressure;altitude;pressure_sealevel;temperature;humidity
49611;BME280;35515;48.766;9.176;2022-12-18T00:01:57;99484.16;;;-6.58;77.14
49611;BME280;35515;48.766;9.176;2022-12-18T00:04:25;99498.41;;;-6.81;77.44
49611;BME280;35515;48.766;9.176;2022-12-18T00:06:53;99497.75;;;-6.67;77.55
49611;BME280;35515;48.766;9.176;2022-12-18T00:09:20;99507.53;;;-6.69;77.67
49611;BME280;35515;48.766;9.176;2022-12-18T00:11:47;99498.75;;;-6.69;77.37
49611;BME280;35515;48.766;9.176;2022-12-18T00:14:14;99487.16;;;-6.84;78.78
49611;BME280;35515;48.766;9.176;2022-12-18T00:16:43;99500.16;;;-6.81;78.55
49611;BME280;35515;48.766;9.176;2022-12-18T00:19:11;99495.06;;;-6.84;78.25
49611;BME280;35515;48.766;9.176;2022-12-18T00:21:38;99504.16;;;-6.53;76.81
49611;BME280;35515;48.766;9.176;2022-12-18T00:24:06;99499.19;;;-6.60;77.09
49611;BME280;35515;48.766;9.176;2022-12-18T00:26:34;99498.69;;;-6.68;77.24
49611;BME280;35515;48.766;9.176;2022-12-18T00:29:02;99490.34;;;-6.59;77.50
49611;BME280;35515;48.766;9.176;2022-12-18T00:31:30;99482.00;;;-6.49;77.90
49611;BME280;35515;48.766;9.176;2022-12-18T00:33:57;99488.50;;;-6.57;77.56
49611;BME280;35515;48.766;9.176;2022-12-18T00:36:25;99491.19;;;-6.39;76.92
49611;BME280;35515;48.766;9.176;2022-12-18T00:38:53;99504.75;;;-6.66;77.88
49611;BME280;35515;48.766;9.176;2022-12-18T00:41:22;99513.78;;;-6.52;78.33
49611;BME280;35515;48.766;9.176;2022-12-18T00:44:09;99510.84;;;-6.65;77.87
49611;BME280;35515;48.766;9.176;2022-12-18T00:46:35;99506.88;;;-6.74;78.78
49611;BME280;35515;48.766;9.176;2022-12-18T00:49:02;99500.75;;;-6.94;79.64
49611;BME280;35515;48.766;9.176;2022-12-18T00:51:29;99512.56;;;-6.83;80.06
49611;BME280;35515;48.766;9.176;2022-12-18T00:53:55;99506.88;;;-6.74;78.67
49611;BME280;35515;48.766;9.176;2022-12-18T00:56:23;99513.72;;;-6.70;78.72
49611;BME280;35515;48.766;9.176;2022-12-18T00:58:50;99509.59;;;-6.76;78.60
49611;BME280;35515;48.766;9.176;2022-12-18T01:01:17;99508.72;;;-6.76;79.21
49611;BME280;35515;48.766;9.176;2022-12-18T01:03:44;99511.59;;;-6.81;78.96
49611;BME280;35515;48.766;9.176;2022-12-18T01:06:13;99510.59;;;-6.78;79.08
49611;BME280;35515;48.766;9.176;2022-12-18T01:08:40;99507.44;;;-6.86;79.27
49611;BME280;35515;48.766;9.176;2022-12-18T01:11:08;99501.88;;;-6.80;79.34
49611;BME280;35515;48.766;9.176;2022-12-18T01:13:36;99503.53;;;-6.59;77.98
49611;BME280;35515;48.766;9.176;2022-12-18T01:16:03;99510.78;;;-6.64;79.17
49611;BME280;35515;48.766;9.176;2022-12-18T01:18:29;99504.66;;;-6.64;79.48
49611;BME280;35515;48.766;9.176;2022-12-18T01:20:56;99504.16;;;-6.53;79.73
49611;BME280;35515;48.766;9.176;2022-12-18T01:23:23;99504.72;;;-6.47;80.06
49611;BME280;35515;48.766;9.176;2022-12-18T01:25:49;99507.59;;;-6.70;80.93
49611;BME280;35515;48.766;9.176;2022-12-18T01:28:15;99512.84;;;-6.70;80.84
49611;BME280;35515;48.766;9.176;2022-12-18T01:30:43;99522.97;;;-6.42;79.99
49611;BME280;35515;48.766;9.176;2022-12-18T01:33:10;99509.00;;;-6.44;80.03
49611;BME280;35515;48.766;9.176;2022-12-18T01:35:40;99509.28;;;-6.31;79.15
49611;BME280;35515;48.766;9.176;2022-12-18T01:38:07;99511.06;;;-6.51;79.94
49611;BME280;35515;48.766;9.176;2022-12-18T01:40:33;99513.72;;;-6.70;80.22
49611;BME280;35515;48.766;9.176;2022-12-18T01:43:00;99516.69;;;-6.59;79.69
49611;BME280;35515;48.766;9.176;2022-12-18T01:45:28;99516.19;;;-6.48;78.78
49611;BME280;35515;48.766;9.176;2022-12-18T01:47:58;99509.88;;;-6.63;79.18
49611;BME280;35515;48.766;9.176;2022-12-18T01:50:29;99520.19;;;-6.77;79.39
49611;BME280;35515;48.766;9.176;2022-12-18T01:52:58;99520.00;;;-6.73;79.86
49611;BME280;35515;48.766;9.176;2022-12-18T01:55:27;99514.56;;;-6.69;80.19
49611;BME280;35515;48.766;9.176;2022-12-18T01:57:57;99519.41;;;-6.41;78.81
49611;BME280;35515;48.766;9.176;2022-12-18T02:00:25;99516.16;;;-6.46;78.96
49611;BME280;35515;48.766;9.176;2022-12-18T02:02:53;99516.44;;;-6.72;79.11
49611;BME280;35515;48.766;9.176;2022-12-18T02:05:29;99509.66;;;-6.58;78.67
49611;BME280;35515;48.766;9.176;2022-12-18T02:08:03;99496.03;;;-6.68;78.96
49611;BME280;35515;48.766;9.176;2022-12-18T02:10:35;99503.88;;;-6.47;77.58
49611;BME280;35515;48.766;9.176;2022-12-18T02:13:11;99508.72;;;-6.76;79.03
49611;BME280;35515;48.766;9.176;2022-12-18T02:15:41;99504.91;;;-6.69;78.97
49611;BME280;35515;48.766;9.176;2022-12-18T02:18:12;99500.31;;;-6.65;78.88
49611;BME280;35515;48.766;9.176;2022-12-18T02:20:45;99506.16;;;-6.59;79.48
49611;BME280;35515;48.766;9.176;2022-12-18T02:23:23;99517.41;;;-6.36;78.67
49611;BME280;35515;48.766;9.176;2022-12-18T02:26:02;99521.97;;;-6.59;78.89
49611;BME280;35515;48.766;9.176;2022-12-18T02:28:35;99515.44;;;-6.69;79.42
49611;BME280;35515;48.766;9.176;2022-12-18T02:31:06;99514.88;;;-6.76;79.89
49611;BME280;35515;48.766;9.176;2022-12-18T02:33:36;99523.03;;;-6.44;78.37
49611;BME280;35515;48.766;9.176;2022-12-18T02:36:04;99524.91;;;-6.65;79.25
49611;BME280;35515;48.766;9.176;2022-12-18T02:38:33;99531.31;;;-6.51;79.64
49611;BME280;35515;48.766;9.176;2022-12-18T02:41:03;99539.25;;;-6.15;77.39
49611;BME280;35515;48.766;9.176;2022-12-18T02:43:30;99529.03;;;-6.40;77.83
49611;BME280;35515;48.766;9.176;2022-12-18T02:45:58;99526.19;;;-6.55;78.50
49611;BME280;35515;48.766;9.176;2022-12-18T02:48:28;99537.03;;;-6.61;78.45
49611;BME280;35515;48.766;9.176;2022-12-18T02:51:00;99541.28;;;-6.77;79.27
49611;BME280;35515;48.766;9.176;2022-12-18T02:53:34;99543.63;;;-6.71;80.37
49611;BME280;35515;48.766;9.176;2022-12-18T02:56:07;99533.41;;;-6.58;78.92
49611;BME280;35515;48.766;9.176;2022-12-18T02:58:41;99543.28;;;-6.63;78.63
49611;BME280;35515;48.766;9.176;2022-12-18T03:01:15;99528.97;;;-6.77;79.54
49611;BME280;35515;48.766;9.176;2022-12-18T03:03:47;99532.09;;;-6.87;79.60
49611;BME280;35515;48.766;9.176;2022-12-18T03:06:21;99524.25;;;-6.70;79.70
49611;BME280;35515;48.766;9.176;2022-12-18T03:08:54;99517.44;;;-6.74;78.73
49611;BME280;35515;48.766;9.176;2022-12-18T03:11:27;99525.53;;;-6.79;79.81
49611;BME280;35515;48.766;9.176;2022-12-18T03:14:15;99536.06;;;-6.79;79.33
49611;BME280;35515;48.766;9.176;2022-12-18T03:16:43;99540.50;;;-6.79;79.69
49611;BME280;35515;48.766;9.176;2022-12-18T03:19:14;99536.44;;;-6.67;79.04
49611;BME280;35515;48.766;9.176;2022-12-18T03:21:44;99556.75;;;-6.69;78.98
49611;BME280;35515;48.766;9.176;2022-12-18T03:24:11;99547.41;;;-6.58;78.67
49611;BME280;35515;48.766;9.176;2022-12-18T03:26:41;99549.56;;;-6.47;78.84
49611;BME280;35515;48.766;9.176;2022-12-18T03:29:12;99548.03;;;-6.33;78.24
49611;BME280;35515;48.766;9.176;2022-12-18T03:31:46;99542.56;;;-6.29;78.52
49611;BME280;35515;48.766;9.176;2022-12-18T03:34:17;99544.84;;;-6.40;79.01
49611;BME280;35515;48.766;9.176;2022-12-18T03:36:46;99551.47;;;-6.50;79.23
49611;BME280;35515;48.766;9.176;2022-12-18T03:39:12;99557.19;;;-6.60;80.34
49611;BME280;35515;48.766;9.176;2022-12-18T03:41:43;99553.56;;;-6.38;79.21
49611;BME280;35515;48.766;9.176;2022-12-18T03:44:13;99546.50;;;-6.57;79.98
49611;BME280;35515;48.766;9.176;2022-12-18T03:46:46;99544.06;;;-6.61;80.91
49611;BME280;35515;48.766;9.176;2022-12-18T03:49:19;99548.72;;;-6.47;79.85
49611;BME280;35515;48.766;9.176;2022-12-18T03:51:54;99547.91;;;-6.49;79.57
49611;BME280;35515;48.766;9.176;2022-12-18T03:54:25;99544.50;;;-6.51;79.74
49611;BME280;35515;48.766;9.176;2022-12-18T03:57:03;99555.25;;;-6.56;80.01
49611;BME280;35515;48.766;9.176;2022-12-18T03:59:32;99548.06;;;-6.72;80.78
49611;BME280;35515;48.766;9.176;2022-12-18T04:02:01;99549.91;;;-6.55;80.19
49611;BME280;35515;48.766;9.176;2022-12-18T04:04:30;99550.53;;;-6.49;78.63
49611;BME280;35515;48.766;9.176;2022-12-18T04:06:58;99545.75;;;-6.41;78.96
49611;BME280;35515;48.766;9.176;2022-12-18T04:09:25;99545.50;;;-6.35;79.34
49611;BME280;35515;48.766;9.176;2022-12-18T04:11:52;99543.47;;;-5.93;76.64
49611;BME280;35515;48.766;9.176;2022-12-18T04:14:20;99547.41;;;-6.19;77.18
49611;BME280;35515;48.766;9.176;2022-12-18T04:16:46;99545.66;;;-6.38;76.19
49611;BME280;35515;48.766;9.176;2022-12-18T04:19:13;99549.47;;;-6.45;77.48
49611;BME280;35515;48.766;9.176;2022-12-18T04:21:39;99545.28;;;-6.30;76.49
49611;BME280;35515;48.766;9.176;2022-12-18T04:24:06;99550.34;;;-6.45;76.90
49611;BME280;35515;48.766;9.176;2022-12-18T04:26:33;99543.38;;;-6.65;77.06
49611;BME280;35515;48.766;9.176;2022-12-18T04:28:59;99553.50;;;-6.56;76.98
49611;BME280;35515;48.766;9.176;2022-12-18T04:31:27;99554.59;;;-6.61;77.27
49611;BME280;35515;48.766;9.176;2022-12-18T04:33:54;99561.28;;;-6.73;78.04
49611;BME280;35515;48.766;9.176;2022-12-18T04:36:20;99570.06;;;-6.73;77.38
49611;BME280;35515;48.766;9.176;2022-12-18T04:38:47;99572.19;;;-6.81;77.95
49611;BME280;35515;48.766;9.176;2022-12-18T04:41:13;99569.59;;;-6.82;78.02
49611;BME280;35515;48.766;9.176;2022-12-18T04:43:40;99581.19;;;-6.66;76.68
49611;BME280;35515;48.766;9.176;2022-12-18T04:46:07;99570.41;;;-6.61;76.66
49611;BME280;35515;48.766;9.176;2022-12-18T04:48:36;99562.66;;;-6.64;76.63
49611;BME280;35515;48.766;9.176;2022-12-18T04:51:03;99553.69;;;-6.41;75.95
49611;BME280;35515;48.766;9.176;2022-12-18T04:53:29;99556.75;;;-6.50;76.06
49611;BME280;35515;48.766;9.176;2022-12-18T04:56:03;99538.50;;;-6.74;76.28
49611;BME280;35515;48.766;9.176;2022-12-18T04:58:30;99530.00;;;-7.00;75.54
49611;BME280;35515;48.766;9.176;2022-12-18T05:00:57;99530.47;;;-7.11;77.09
49611;BME280;35515;48.766;9.176;2022-12-18T05:03:23;99533.91;;;-7.09;76.87
49611;BME280;35515;48.766;9.176;2022-12-18T05:05:51;99533.97;;;-7.10;77.81
49611;BME280;35515;48.766;9.176;2022-12-18T05:08:18;99540.34;;;-6.95;75.97
49611;BME280;35515;48.766;9.176;2022-12-18T05:10:44;99543.75;;;-6.93;76.61
49611;BME280;35515;48.766;9.176;2022-12-18T05:13:11;99551.22;;;-7.03;76.79
49611;BME280;35515;48.766;9.176;2022-12-18T05:15:37;99548.91;;;-6.90;76.41
49611;BME280;35515;48.766;9.176;2022-12-18T05:18:04;99546.00;;;-7.04;75.65
49611;BME280;35515;48.766;9.176;2022-12-18T05:20:30;99546.16;;;-7.28;76.85
49611;BME280;35515;48.766;9.176;2022-12-18T05:22:58;99553.63;;;-7.38;77.53
49611;BME280;35515;48.766;9.176;2022-12-18T05:25:25;99556.31;;;-7.40;77.01
49611;BME280;35515;48.766;9.176;2022-12-18T05:27:51;99564.59;;;-7.28;76.69
49611;BME280;35515;48.766;9.176;2022-12-18T05:30:18;99567.56;;;-7.36;76.78
49611;BME280;35515;48.766;9.176;2022-12-18T05:32:44;99564.91;;;-7.36;76.43
49611;BME280;35515;48.766;9.176;2022-12-18T05:35:11;99574.41;;;-7.32;76.03
49611;BME280;35515;48.766;9.176;2022-12-18T05:37:37;99574.75;;;-7.40;76.33
49611;BME280;35515;48.766;9.176;2022-12-18T05:40:07;99582.44;;;-7.56;76.30
49611;BME280;35515;48.766;9.176;2022-12-18T05:42:33;99586.88;;;-7.58;76.33
49611;BME280;35515;48.766;9.176;2022-12-18T05:45:00;99587.69;;;-7.56;76.69
49611;BME280;35515;48.766;9.176;2022-12-18T05:47:27;99592.81;;;-7.52;75.85
49611;BME280;35515;48.766;9.176;2022-12-18T05:49:53;99582.16;;;-7.49;75.71
49611;BME280;35515;48.766;9.176;2022-12-18T05:52:20;99577.28;;;-7.59;76.03
49611;BME280;35515;48.766;9.176;2022-12-18T05:54:47;99564.78;;;-7.53;75.30
49611;BME280;35515;48.766;9.176;2022-12-18T05:57:14;99564.78;;;-7.74;76.61
49611;BME280;35515;48.766;9.176;2022-12-18T05:59:41;99567.13;;;-7.68;76.04
49611;BME280;35515;48.766;9.176;2022-12-18T06:02:08;99560.03;;;-7.66;76.01
49611;BME280;35515;48.766;9.176;2022-12-18T06:04:34;99571.94;;;-7.78;76.50
49611;BME280;35515;48.766;9.176;2022-12-18T06:07:01;99570.28;;;-7.80;76.58
49611;BME280;35515;48.766;9.176;2022-12-18T06:09:28;99572.97;;;-7.82;75.72
49611;BME280;35515;48.766;9.176;2022-12-18T06:11:55;99574.34;;;-7.73;76.27
49611;BME280;35515;48.766;9.176;2022-12-18T06:14:23;99585.66;;;-7.92;76.82
49611;BME280;35515;48.766;9.176;2022-12-18T06:16:50;99583.78;;;-7.67;75.50
49611;BME280;35515;48.766;9.176;2022-12-18T06:19:17;99583.06;;;-7.71;74.73
49611;BME280;35515;48.766;9.176;2022-12-18T06:21:44;99573.97;;;-7.64;73.97
49611;BME280;35515;48.766;9.176;2022-12-18T06:24:10;99574.88;;;-7.85;74.04
49611;BME280;35515;48.766;9.176;2022-12-18T06:26:38;99585.56;;;-7.68;75.12
49611;BME280;35515;48.766;9.176;2022-12-18T06:29:05;99582.28;;;-7.95;74.13
49611;BME280;35515;48.766;9.176;2022-12-18T06:31:33;99594.00;;;-8.04;74.64
49611;BME280;35515;48.766;9.176;2022-12-18T06:34:01;99592.91;;;-7.76;74.47
49611;BME280;35515;48.766;9.176;2022-12-18T06:36:28;99596.41;;;-7.98;74.28
49611;BME280;35515;48.766;9.176;2022-12-18T06:38:56;99598.84;;;-7.71;74.32
49611;BME280;35515;48.766;9.176;2022-12-18T06:41:22;99601.53;;;-7.73;73.27
49611;BME280;35515;48.766;9.176;2022-12-18T06:43:49;99606.47;;;-8.09;74.49
49611;BME280;35515;48.766;9.176;2022-12-18T06:46:16;99611.28;;;-7.97;74.25
49611;BME280;35515;48.766;9.176;2022-12-18T06:48:46;99606.13;;;-8.00;74.38
49611;BME280;35515;48.766;9.176;2022-12-18T06:51:16;99587.97;;;-8.06;74.50
49611;BME280;35515;48.766;9.176;2022-12-18T06:53:42;99595.66;;;-8.01;74.18
49611;BME280;35515;48.766;9.176;2022-12-18T06:56:09;99598.03;;;-8.17;75.14
49611;BME280;35515;48.766;9.176;2022-12-18T06:58:35;99600.53;;;-8.14;75.10
49611;BME280;35515;48.766;9.176;2022-12-18T07:01:03;99600.94;;;-8.24;75.20
49611;BME280;35515;48.766;9.176;2022-12-18T07:03:31;99599.91;;;-8.21;75.06
49611;BME280;35515;48.766;9.176;2022-12-18T07:05:59;99605.69;;;-8.11;75.08
49611;BME280;35515;48.766;9.176;2022-12-18T07:08:25;99603.75;;;-8.06;74.50
49611;BME280;35515;48.766;9.176;2022-12-18T07:10:52;99618.84;;;-8.11;74.88
49611;BME280;35515;48.766;9.176;2022-12-18T07:13:19;99619.75;;;-8.12;74.96
49611;BME280;35515;48.766;9.176;2022-12-18T07:15:45;99615.88;;;-8.02;74.83
49611;BME280;35515;48.766;9.176;2022-12-18T07:18:12;99621.34;;;-8.08;74.92
49611;BME280;35515;48.766;9.176;2022-12-18T07:20:38;99615.38;;;-7.90;74.74
49611;BME280;35515;48.766;9.176;2022-12-18T07:23:06;99635.41;;;-8.09;75.22
49611;BME280;35515;48.766;9.176;2022-12-18T07:25:33;99635.31;;;-8.06;75.13
49611;BME280;35515;48.766;9.176;2022-12-18T07:28:00;99629.25;;;-8.32;75.85
49611;BME280;35515;48.766;9.176;2022-12-18T07:30:26;99629.09;;;-8.27;75.75
49611;BME280;35515;48.766;9.176;2022-12-18T07:32:53;99623.44;;;-8.16;74.83
49611;BME280;35515;48.766;9.176;2022-12-18T07:35:19;99629.16;;;-8.29;75.43
49611;BME280;35515;48.766;9.176;2022-12-18T07:37:46;99632.91;;;-8.36;75.71
49611;BME280;35515;48.766;9.176;2022-12-18T07:40:14;99636.59;;;-8.40;75.93
49611;BME280;35515;48.766;9.176;2022-12-18T07:42:40;99635.09;;;-8.24;74.94
49611;BME280;35515;48.766;9.176;2022-12-18T07:45:07;99635.41;;;-8.09;75.01
49611;BME280;35515;48.766;9.176;2022-12-18T07:47:34;99647.59;;;-8.30;75.12
49611;BME280;35515;48.766;9.176;2022-12-18T07:50:02;99645.78;;;-8.28;75.58
49611;BME280;35515;48.766;9.176;2022-12-18T07:52:29;99650.75;;;-8.20;75.34
49611;BME280;35515;48.766;9.176;2022-12-18T07:54:55;99645.84;;;-8.06;74.63
49611;BME280;35515;48.766;9.176;2022-12-18T07:57:23;99642.84;;;-7.97;74.13
49611;BME280;35515;48.766;9.176;2022-12-18T07:59:50;99651.31;;;-8.12;74.84
49611;BME280;35515;48.766;9.176;2022-12-18T08:02:16;99648.13;;;-8.20;75.55
49611;BME280;35515;48.766;9.176;2022-12-18T08:04:43;99637.63;;;-7.98;74.65
49611;BME280;35515;48.766;9.176;2022-12-18T08:07:09;99641.78;;;-8.15;75.76
49611;BME280;35515;48.766;9.176;2022-12-18T08:09:36;99648.63;;;-8.11;75.90
49611;BME280;35515;48.766;9.176;2022-12-18T08:12:03;99640.31;;;-8.00;75.30
49611;BME280;35515;48.766;9.176;2022-12-18T08:14:30;99651.31;;;-8.12;76.01
49611;BME280;35515;48.766;9.176;2022-12-18T08:16:57;99650.88;;;-8.24;75.86
49611;BME280;35515;48.766;9.176;2022-12-18T08:19:24;99645.38;;;-8.17;75.84
49611;BME280;35515;48.766;9.176;2022-12-18T08:21:50;99652.91;;;-8.08;75.96
49611;BME280;35515;48.766;9.176;2022-12-18T08:24:17;99641.13;;;-7.98;75.56
49611;BME280;35515;48.766;9.176;2022-12-18T08:26:43;99649.75;;;-7.94;75.88
49611;BME280;35515;48.766;9.176;2022-12-18T08:29:27;99640.22;;;-7.97;76.03
49611;BME280;35515;48.766;9.176;2022-12-18T08:31:55;99638.84;;;-8.07;77.30
49611;BME280;35515;48.766;9.176;2022-12-18T08:34:21;99633.31;;;-7.99;77.25
49611;BME280;35515;48.766;9.176;2022-12-18T08:36:48;99638.28;;;-7.92;77.08
49611;BME280;35515;48.766;9.176;2022-12-18T08:39:14;99639.97;;;-7.46;75.40
49611;BME280;35515;48.766;9.176;2022-12-18T08:41:41;99647.25;;;-7.53;75.53
49611;BME280;35515;48.766;9.176;2022-12-18T08:44:08;99645.38;;;-7.71;76.04
49611;BME280;35515;48.766;9.176;2022-12-18T08:46:52;99642.16;;;-7.58;76.14
49611;BME280;35515;48.766;9.176;2022-12-18T08:49:20;99640.66;;;-7.43;76.43
49611;BME280;35515;48.766;9.176;2022-12-18T08:51:46;99648.16;;;-7.54;76.21
49611;BME280;35515;48.766;9.176;2022-12-18T08:54:13;99643.75;;;-7.53;76.82
49611;BME280;35515;48.766;9.176;2022-12-18T08:56:39;99639.16;;;-7.48;76.76
49611;BME280;35515;48.766;9.176;2022-12-18T08:59:06;99629.75;;;-7.33;76.47
49611;BME280;35515;48.766;9.176;2022-12-18T09:01:32;99637.34;;;-7.26;77.08
49611;BME280;35515;48.766;9.176;2022-12-18T09:03:59;99627.19;;;-7.35;78.37
49611;BME280;35515;48.766;9.176;2022-12-18T09:06:27;99623.75;;;-7.37;78.67
49611;BME280;35515;48.766;9.176;2022-12-18T09:08:53;99620.34;;;-7.18;78.25
49611;BME280;35515;48.766;9.176;2022-12-18T09:11:21;99617.06;;;-7.03;78.06
49611;BME280;35515;48.766;9.176;2022-12-18T09:13:49;99616.09;;;-7.00;78.21
49611;BME280;35515;48.766;9.176;2022-12-18T09:16:16;99619.38;;;-6.95;78.43
49611;BME280;35515;48.766;9.176;2022-12-18T09:18:43;99619.22;;;-6.92;78.30
49611;BME280;35515;48.766;9.176;2022-12-18T09:21:11;99616.72;;;-6.75;78.43
49611;BME280;35515;48.766;9.176;2022-12-18T09:23:39;99615.06;;;-6.77;79.34
49611;BME280;35515;48.766;9.176;2022-12-18T09:26:07;99610.19;;;-6.66;79.03
49611;BME280;35515;48.766;9.176;2022-12-18T09:28:33;99608.72;;;-6.73;80.05
49611;BME280;35515;48.766;9.176;2022-12-18T09:31:04;99598.94;;;-6.50;78.05
49611;BME280;35515;48.766;9.176;2022-12-18T09:33:30;99604.84;;;-6.45;77.84
49611;BME280;35515;48.766;9.176;2022-12-18T09:35:57;99607.06;;;-6.36;77.92
49611;BME280;35515;48.766;9.176;2022-12-18T09:38:23;99606.84;;;-6.50;78.49
49611;BME280;35515;48.766;9.176;2022-12-18T09:40:53;99610.69;;;-6.58;79.13
49611;BME280;35515;48.766;9.176;2022-12-18T09:43:26;99603.00;;;-6.43;78.33
49611;BME280;35515;48.766;9.176;2022-12-18T09:45:58;99603.72;;;-6.40;78.21
49611;BME280;35515;48.766;9.176;2022-12-18T09:48:28;99595.72;;;-6.00;76.90
49611;BME280;35515;48.766;9.176;2022-12-18T09:51:02;99598.66;;;-6.06;77.13
49611;BME280;35515;48.766;9.176;2022-12-18T09:53:32;99586.91;;;-6.18;77.38
49611;BME280;35515;48.766;9.176;2022-12-18T09:56:04;99581.97;;;-6.26;78.29
49611;BME280;35515;48.766;9.176;2022-12-18T09:58:34;99582.19;;;-6.11;78.85
49611;BME280;35515;48.766;9.176;2022-12-18T10:01:09;99583.91;;;-5.93;78.30
49611;BME280;35515;48.766;9.176;2022-12-18T10:03:36;99593.66;;;-6.12;79.86
49611;BME280;35515;48.766;9.176;2022-12-18T10:06:08;99583.25;;;-6.15;79.69
49611;BME280;35515;48.766;9.176;2022-12-18T10:08:42;99583.19;;;-5.96;79.74
49611;BME280;35515;48.766;9.176;2022-12-18T10:11:37;99589.28;;;-5.94;79.94
49611;BME280;35515;48.766;9.176;2022-12-18T10:14:11;99590.03;;;-5.92;79.27
49611;BME280;35515;48.766;9.176;2022-12-18T10:16:47;99592.03;;;-5.78;79.64
49611;BME280;35515;48.766;9.176;2022-12-18T10:19:33;99594.66;;;-5.78;80.73
49611;BME280;35515;48.766;9.176;2022-12-18T10:22:07;99596.25;;;-5.57;80.32
49611;BME280;35515;48.766;9.176;2022-12-18T10:24:42;99601.69;;;-5.60;81.49
49611;BME280;35515;48.766;9.176;2022-12-18T10:27:14;99600.91;;;-5.62;81.93
49611;BME280;35515;48.766;9.176;2022-12-18T10:29:42;99601.53;;;-5.57;82.96
49611;BME280;35515;48.766;9.176;2022-12-18T10:32:14;99597.19;;;-5.40;81.84
49611;BME280;35515;48.766;9.176;2022-12-18T10:34:45;99587.88;;;-5.47;81.86
49611;BME280;35515;48.766;9.176;2022-12-18T10:37:15;99593.16;;;-5.47;83.02
49611;BME280;35515;48.766;9.176;2022-12-18T10:39:43;99600.78;;;-5.24;82.19
49611;BME280;35515;48.766;9.176;2022-12-18T10:42:16;99605.91;;;-5.21;82.33
49611;BME280;35515;48.766;9.176;2022-12-18T10:44:42;99605.19;;;-5.24;81.39
49611;BME280;35515;48.766;9.176;2022-12-18T10:47:12;99595.88;;;-5.14;82.24
49611;BME280;35515;48.766;9.176;2022-12-18T10:49:46;99598.72;;;-5.18;82.56
49611;BME280;35515;48.766;9.176;2022-12-18T10:52:16;99589.88;;;-5.17;82.54
49611;BME280;35515;48.766;9.176;2022-12-18T10:54:48;99588.09;;;-5.17;83.23
49611;BME280;35515;48.766;9.176;2022-12-18T10:57:32;99597.56;;;-4.95;82.97
49611;BME280;35515;48.766;9.176;2022-12-18T11:00:05;99598.31;;;-4.93;82.69
49611;BME280;35515;48.766;9.176;2022-12-18T11:02:45;99601.03;;;-4.77;82.39
49611;BME280;35515;48.766;9.176;2022-12-18T11:05:24;99586.34;;;-4.83;81.97
49611;BME280;35515;48.766;9.176;2022-12-18T11:07:51;99585.59;;;-4.85;82.21
49611;BME280;35515;48.766;9.176;2022-12-18T11:10:20;99592.66;;;-4.85;82.91
49611;BME280;35515;48.766;9.176;2022-12-18T11:12:48;99580.03;;;-4.80;83.01
49611;BME280;35515;48.766;9.176;2022-12-18T11:15:17;99579.56;;;-4.71;82.86
49611;BME280;35515;48.766;9.176;2022-12-18T11:17:48;99568.31;;;-4.59;82.12
49611;BME280;35515;48.766;9.176;2022-12-18T11:20:30;99572.34;;;-4.51;82.56
49611;BME280;35515;48.766;9.176;2022-12-18T11:22:59;99558.63;;;-4.42;82.48
49611;BME280;35515;48.766;9.176;2022-12-18T11:25:28;99549.81;;;-4.27;82.52
49611;BME280;35515;48.766;9.176;2022-12-18T11:27:58;99563.47;;;-4.34;82.51
49611;BME280;35515;48.766;9.176;2022-12-18T11:30:28;99569.53;;;-4.32;82.84
49611;BME280;35515;48.766;9.176;2022-12-18T11:33:04;99558.78;;;-4.13;82.10
49611;BME280;35515;48.766;9.176;2022-12-18T11:35:37;99552.56;;;-4.12;81.60
49611;BME280;35515;48.766;9.176;2022-12-18T11:38:14;99564.84;;;-4.11;81.63
49611;BME280;35515;48.766;9.176;2022-12-18T11:40:45;99566.13;;;-4.18;81.26
49611;BME280;35515;48.766;9.176;2022-12-18T11:43:17;99557.94;;;-4.14;82.22
49611;BME280;35515;48.766;9.176;2022-12-18T11:45:51;99548.53;;;-3.88;82.17
49611;BME280;35515;48.766;9.176;2022-12-18T11:48:22;99543.50;;;-3.92;80.95
49611;BME280;35515;48.766;9.176;2022-12-18T11:50:52;99548.53;;;-3.88;81.19
49611;BME280;35515;48.766;9.176;2022-12-18T11:53:20;99541.00;;;-3.79;80.62
49611;BME280;35515;48.766;9.176;2022-12-18T11:55:58;99542.56;;;-3.91;81.37
49611;BME280;35515;48.766;9.176;2022-12-18T11:58:47;99541.19;;;-3.82;81.60
49611;BME280;35515;48.766;9.176;2022-12-18T12:01:21;99539.97;;;-3.77;81.16
49611;BME280;35515;48.766;9.176;2022-12-18T12:04:15;99520.94;;;-3.83;80.51
49611;BME280;35515;48.766;9.176;2022-12-18T12:06:51;99525.03;;;-3.78;80.82
49611;BME280;35515;48.766;9.176;2022-12-18T12:09:26;99525.91;;;-3.63;80.71
49611;BME280;35515;48.766;9.176;2022-12-18T12:12:10;99520.63;;;-3.63;80.52
49611;BME280;35515;48.766;9.176;2022-12-18T12:14:52;99512.88;;;-3.66;81.03
49611;BME280;35515;48.766;9.176;2022-12-18T12:17:29;99500.94;;;-3.59;80.35
49611;BME280;35515;48.766;9.176;2022-12-18T12:20:06;99514.44;;;-3.47;79.89
49611;BME280;35515;48.766;9.176;2022-12-18T12:22:40;99520.47;;;-3.45;79.55
49611;BME280;35515;48.766;9.176;2022-12-18T12:25:21;99519.06;;;-3.51;80.64
49611;BME280;35515;48.766;9.176;2022-12-18T12:28:01;99518.59;;;-3.43;80.42
49611;BME280;35515;48.766;9.176;2022-12-18T12:30:36;99516.34;;;-3.35;79.63
49611;BME280;35515;48.766;9.176;2022-12-18T12:33:17;99512.53;;;-3.45;79.80
49611;BME280;35515;48.766;9.176;2022-12-18T12:35:52;99514.63;;;-3.50;79.66
49611;BME280;35515;48.766;9.176;2022-12-18T12:38:24;99508.94;;;-3.44;79.62
49611;BME280;35515;48.766;9.176;2022-12-18T12:40:54;99517.66;;;-3.42;79.65
49611;BME280;35515;48.766;9.176;2022-12-18T12:43:28;99511.78;;;-3.47;80.24
49611;BME280;35515;48.766;9.176;2022-12-18T12:46:00;99510.06;;;-3.48;80.43
49611;BME280;35515;48.766;9.176;2022-12-18T12:48:33;99507.47;;;-3.20;79.42
49611;BME280;35515;48.766;9.176;2022-12-18T12:51:06;99515.41;;;-3.34;79.58
49611;BME280;35515;48.766;9.176;2022-12-18T12:53:36;99524.03;;;-3.30;79.85
49611;BME280;35515;48.766;9.176;2022-12-18T12:56:04;99522.72;;;-3.09;79.65
49611;BME280;35515;48.766;9.176;2022-12-18T12:58:37;99524.50;;;-3.09;79.05
49611;BME280;35515;48.766;9.176;2022-12-18T13:01:17;99535.72;;;-2.90;78.30
49611;BME280;35515;48.766;9.176;2022-12-18T13:03:52;99536.34;;;-3.15;78.90
49611;BME280;35515;48.766;9.176;2022-12-18T13:06:32;99534.34;;;-3.26;80.94
49611;BME280;35515;48.766;9.176;2022-12-18T13:09:00;99523.19;;;-3.16;80.45
49611;BME280;35515;48.766;9.176;2022-12-18T13:11:35;99527.00;;;-3.06;79.81
49611;BME280;35515;48.766;9.176;2022-12-18T13:14:22;99530.03;;;-2.98;79.35